sensor_id;sensor_type;location;lat;lon;timestamp;pressure;altitude;pressure_sealevel;temperature
13570;BMP180;6856;51.460;7.158;2023-04-05T00:01:59;101206.00;;;8.20
13570;BMP180;6856;51.460;7.158;2023-04-05T00:04:34;101196.00;;;8.20
13570;BMP180;6856;51.460;7.158;2023-04-05T00:07:10;101204.00;;;8.20
13570;BMP180;6856;51.460;7.158;2023-04-05T00:09:44;101198.00;;;8.20
13570;BMP180;6856;51.460;7.158;2023-04-05T00:12:18;101200.00;;;8.20
13570;BMP180;6856;51.460;7.158;2023-04-05T00:14:52;101190.00;;;8.10
13570;BMP180;6856;51.460;7.158;2023-04-05T00:17:25;101198.00;;;8.10
13570;BMP180;6856;51.460;7.158;2023-04-05T00:20:02;101199.00;;;8.10
13570;BMP180;6856;51.460;7.158;2023-04-05T00:22:41;101203.00;;;8.00
13570;BMP180;6856;51.460;7.158;2023-04-05T00:25:16;101194.00;;;8.00
13570;BMP180;6856;51.460;7.158;2023-04-05T00:27:53;101190.00;;;8.00
13570;BMP180;6856;51.460;7.158;2023-04-05T00:30:27;101198.00;;;8.00
13570;BMP180;6856;51.460;7.158;2023-04-05T00:33:01;101204.00;;;7.90
13570;BMP180;6856;51.460;7.158;2023-04-05T00:35:36;101193.00;;;7.90
13570;BMP180;6856;51.460;7.158;2023-04-05T00:38:10;101194.00;;;7.90
13570;BMP180;6856;51.460;7.158;2023-04-05T00:40:44;101197.00;;;7.90
13570;BMP180;6856;51.460;7.158;2023-04-05T00:43:19;101187.00;;;7.80
13570;BMP180;6856;51.460;7.158;2023-04-05T00:45:53;101189.00;;;7.80
13570;BMP180;6856;51.460;7.158;2023-04-05T00:48:28;101180.00;;;7.80
13570;BMP180;6856;51.460;7.158;2023-04-05T00:51:03;101176.00;;;7.70
13570;BMP180;6856;51.460;7.158;2023-04-05T00:53:43;101170.00;;;7.70
13570;BMP180;6856;51.460;7.158;2023-04-05T00:56:17;101170.00;;;7.70
13570;BMP180;6856;51.460;7.158;2023-04-05T00:58:53;101166.00;;;7.60
13570;BMP180;6856;51.460;7.158;2023-04-05T01:01:27;101174.00;;;7.60
13570;BMP180;6856;51.460;7.158;2023-04-05T01:04:04;101171.00;;;7.60
13570;BMP180;6856;51.460;7.158;2023-04-05T01:06:59;101169.00;;;7.60
13570;BMP180;6856;51.460;7.158;2023-04-05T01:09:47;101158.00;;;7.50
13570;BMP180;6856;51.460;7.158;2023-04-05T01:12:30;101169.00;;;7.50
13570;BMP180;6856;51.460;7.158;2023-04-05T01:15:06;101175.00;;;7.50
13570;BMP180;6856;51.460;7.158;2023-04-05T01:17:40;101175.00;;;7.40
13570;BMP180;6856;51.460;7.158;2023-04-05T01:20:16;101174.00;;;7.40
13570;BMP180;6856;51.460;7.158;2023-04-05T01:23:20;101170.00;;;7.40
13570;BMP180;6856;51.460;7.158;2023-04-05T01:29:52;101164.00;;;7.20
13570;BMP180;6856;51.460;7.158;2023-04-05T01:32:47;101153.00;;;7.20
13570;BMP180;6856;51.460;7.158;2023-04-05T01:35:32;101163.00;;;7.20
13570;BMP180;6856;51.460;7.158;2023-04-05T01:38:17;101163.00;;;7.10
13570;BMP180;6856;51.460;7.158;2023-04-05T01:40:52;101142.00;;;7.10
13570;BMP180;6856;51.460;7.158;2023-04-05T01:43:25;101145.00;;;7.10
13570;BMP180;6856;51.460;7.158;2023-04-05T01:46:01;101138.00;;;7.00
13570;BMP180;6856;51.460;7.158;2023-04-05T01:48:34;101141.00;;;7.00
13570;BMP180;6856;51.460;7.158;2023-04-05T01:51:08;101133.00;;;7.00
13570;BMP180;6856;51.460;7.158;2023-04-05T01:53:42;101140.00;;;7.00
13570;BMP180;6856;51.460;7.158;2023-04-05T01:56:16;101140.00;;;6.90
13570;BMP180;6856;51.460;7.158;2023-04-05T01:58:49;101136.00;;;6.90
13570;BMP180;6856;51.460;7.158;2023-04-05T02:01:24;101141.00;;;6.90
13570;BMP180;6856;51.460;7.158;2023-04-05T02:03:58;101141.00;;;6.80
13570;BMP180;6856;51.460;7.158;2023-04-05T02:06:32;101131.00;;;6.80
13570;BMP180;6856;51.460;7.158;2023-04-05T02:09:05;101134.00;;;6.80
13570;BMP180;6856;51.460;7.158;2023-04-05T02:11:39;101131.00;;;6.80
13570;BMP180;6856;51.460;7.158;2023-04-05T02:14:13;101135.00;;;6.70
13570;BMP180;6856;51.460;7.158;2023-04-05T02:16:48;101135.00;;;6.70
13570;BMP180;6856;51.460;7.158;2023-04-05T02:19:22;101107.00;;;6.70
13570;BMP180;6856;51.460;7.158;2023-04-05T02:21:57;101116.00;;;6.60
13570;BMP180;6856;51.460;7.158;2023-04-05T02:24:30;101124.00;;;6.60
13570;BMP180;6856;51.460;7.158;2023-04-05T02:27:05;101114.00;;;6.50
13570;BMP180;6856;51.460;7.158;2023-04-05T02:29:39;101113.00;;;6.50
13570;BMP180;6856;51.460;7.158;2023-04-05T02:32:15;101117.00;;;6.50
13570;BMP180;6856;51.460;7.158;2023-04-05T02:34:48;101111.00;;;6.50
13570;BMP180;6856;51.460;7.158;2023-04-05T02:37:23;101107.00;;;6.40
13570;BMP180;6856;51.460;7.158;2023-04-05T02:39:58;101112.00;;;6.40
13570;BMP180;6856;51.460;7.158;2023-04-05T02:42:32;101112.00;;;6.40
13570;BMP180;6856;51.460;7.158;2023-04-05T02:45:07;101107.00;;;6.40
13570;BMP180;6856;51.460;7.158;2023-04-05T02:47:42;101115.00;;;6.40
13570;BMP180;6856;51.460;7.158;2023-04-05T02:50:16;101117.00;;;6.30
13570;BMP180;6856;51.460;7.158;2023-04-05T02:52:52;101082.00;;;6.30
13570;BMP180;6856;51.460;7.158;2023-04-05T02:55:26;101107.00;;;6.30
13570;BMP180;6856;51.460;7.158;2023-04-05T02:58:00;101105.00;;;6.30
13570;BMP180;6856;51.460;7.158;2023-04-05T03:00:34;101104.00;;;6.20
13570;BMP180;6856;51.460;7.158;2023-04-05T03:03:09;101114.00;;;6.20
13570;BMP180;6856;51.460;7.158;2023-04-05T03:05:42;101119.00;;;6.20
13570;BMP180;6856;51.460;7.158;2023-04-05T03:08:16;101109.00;;;6.10
13570;BMP180;6856;51.460;7.158;2023-04-05T03:10:51;101110.00;;;6.10
13570;BMP180;6856;51.460;7.158;2023-04-05T03:13:25;101110.00;;;6.10
13570;BMP180;6856;51.460;7.158;2023-04-05T03:15:59;101084.00;;;6.10
13570;BMP180;6856;51.460;7.158;2023-04-05T03:18:34;101100.00;;;6.00
13570;BMP180;6856;51.460;7.158;2023-04-05T03:21:08;101100.00;;;6.00
13570;BMP180;6856;51.460;7.158;2023-04-05T03:23:43;101094.00;;;6.00
13570;BMP180;6856;51.460;7.158;2023-04-05T03:26:18;101102.00;;;6.00
13570;BMP180;6856;51.460;7.158;2023-04-05T03:28:51;101096.00;;;5.90
13570;BMP180;6856;51.460;7.158;2023-04-05T03:31:25;101101.00;;;5.90
13570;BMP180;6856;51.460;7.158;2023-04-05T03:34:02;101092.00;;;5.90
13570;BMP180;6856;51.460;7.158;2023-04-05T03:36:35;101066.00;;;5.90
13570;BMP180;6856;51.460;7.158;2023-04-05T03:39:14;101086.00;;;5.90
13570;BMP180;6856;51.460;7.158;2023-04-05T03:41:48;101068.00;;;5.80
13570;BMP180;6856;51.460;7.158;2023-04-05T03:44:21;101094.00;;;5.90
13570;BMP180;6856;51.460;7.158;2023-04-05T03:46:55;101090.00;;;5.80
13570;BMP180;6856;51.460;7.158;2023-04-05T03:49:31;101090.00;;;5.80
13570;BMP180;6856;51.460;7.158;2023-04-05T03:52:04;101099.00;;;5.80
13570;BMP180;6856;51.460;7.158;2023-04-05T03:54:39;101102.00;;;5.80
13570;BMP180;6856;51.460;7.158;2023-04-05T03:57:12;101090.00;;;5.70
13570;BMP180;6856;51.460;7.158;2023-04-05T03:59:46;101089.00;;;5.70
13570;BMP180;6856;51.460;7.158;2023-04-05T04:02:20;101090.00;;;5.70
13570;BMP180;6856;51.460;7.158;2023-04-05T04:04:55;101093.00;;;5.70
13570;BMP180;6856;51.460;7.158;2023-04-05T04:07:29;101085.00;;;5.70
13570;BMP180;6856;51.460;7.158;2023-04-05T04:10:03;101088.00;;;5.60
13570;BMP180;6856;51.460;7.158;2023-04-05T04:12:37;101093.00;;;5.60
13570;BMP180;6856;51.460;7.158;2023-04-05T04:15:12;101085.00;;;5.60
13570;BMP180;6856;51.460;7.158;2023-04-05T04:17:46;101085.00;;;5.60
13570;BMP180;6856;51.460;7.158;2023-04-05T04:20:22;101075.00;;;5.50
13570;BMP180;6856;51.460;7.158;2023-04-05T04:22:57;101079.00;;;5.50
13570;BMP180;6856;51.460;7.158;2023-04-05T04:25:32;101075.00;;;5.50
13570;BMP180;6856;51.460;7.158;2023-04-05T04:28:06;101084.00;;;5.50
13570;BMP180;6856;51.460;7.158;2023-04-05T04:30:40;101077.00;;;5.40
13570;BMP180;6856;51.460;7.158;2023-04-05T04:33:15;101075.00;;;5.40
13570;BMP180;6856;51.460;7.158;2023-04-05T04:35:52;101068.00;;;5.40
13570;BMP180;6856;51.460;7.158;2023-04-05T04:38:26;101076.00;;;5.40
13570;BMP180;6856;51.460;7.158;2023-04-05T04:41:05;101081.00;;;5.40
13570;BMP180;6856;51.460;7.158;2023-04-05T04:43:39;101082.00;;;5.40
13570;BMP180;6856;51.460;7.158;2023-04-05T04:46:15;101043.00;;;5.30
13570;BMP180;6856;51.460;7.158;2023-04-05T04:48:52;101078.00;;;5.30
13570;BMP180;6856;51.460;7.158;2023-04-05T04:51:27;101078.00;;;5.30
13570;BMP180;6856;51.460;7.158;2023-04-05T04:54:02;101079.00;;;5.30
13570;BMP180;6856;51.460;7.158;2023-04-05T04:56:36;101077.00;;;5.30
13570;BMP180;6856;51.460;7.158;2023-04-05T04:59:10;101076.00;;;5.20
13570;BMP180;6856;51.460;7.158;2023-04-05T05:01:44;101078.00;;;5.20
13570;BMP180;6856;51.460;7.158;2023-04-05T05:04:19;101085.00;;;5.20
13570;BMP180;6856;51.460;7.158;2023-04-05T05:06:54;101076.00;;;5.20
13570;BMP180;6856;51.460;7.158;2023-04-05T05:09:28;101073.00;;;5.20
13570;BMP180;6856;51.460;7.158;2023-04-05T05:12:02;101081.00;;;5.10
13570;BMP180;6856;51.460;7.158;2023-04-05T05:14:36;101068.00;;;5.10
13570;BMP180;6856;51.460;7.158;2023-04-05T05:17:10;101089.00;;;5.10
13570;BMP180;6856;51.460;7.158;2023-04-05T05:19:44;101076.00;;;5.10
13570;BMP180;6856;51.460;7.158;2023-04-05T05:22:19;101081.00;;;5.10
13570;BMP180;6856;51.460;7.158;2023-04-05T05:24:53;101087.00;;;5.10
13570;BMP180;6856;51.460;7.158;2023-04-05T05:27:26;101089.00;;;5.10
13570;BMP180;6856;51.460;7.158;2023-04-05T05:30:00;101073.00;;;5.10
13570;BMP180;6856;51.460;7.158;2023-04-05T05:32:34;101054.00;;;5.10
13570;BMP180;6856;51.460;7.158;2023-04-05T05:35:09;101089.00;;;5.10
13570;BMP180;6856;51.460;7.158;2023-04-05T05:37:46;101087.00;;;5.10
13570;BMP180;6856;51.460;7.158;2023-04-05T05:40:19;101087.00;;;5.10
13570;BMP180;6856;51.460;7.158;2023-04-05T05:42:53;101088.00;;;5.10
13570;BMP180;6856;51.460;7.158;2023-04-05T05:45:27;101083.00;;;5.10
13570;BMP180;6856;51.460;7.158;2023-04-05T05:48:01;101077.00;;;5.10
13570;BMP180;6856;51.460;7.158;2023-04-05T05:50:36;101074.00;;;5.10
13570;BMP180;6856;51.460;7.158;2023-04-05T05:53:12;101081.00;;;5.10
13570;BMP180;6856;51.460;7.158;2023-04-05T05:55:46;101085.00;;;5.10
13570;BMP180;6856;51.460;7.158;2023-04-05T05:58:20;101068.00;;;5.10
13570;BMP180;6856;51.460;7.158;2023-04-05T06:00:53;101075.00;;;5.10
13570;BMP180;6856;51.460;7.158;2023-04-05T06:03:28;101075.00;;;5.20
13570;BMP180;6856;51.460;7.158;2023-04-05T06:06:03;101046.00;;;5.20
13570;BMP180;6856;51.460;7.158;2023-04-05T06:08:45;101079.00;;;5.20
13570;BMP180;6856;51.460;7.158;2023-04-05T06:11:21;101081.00;;;5.30
13570;BMP180;6856;51.460;7.158;2023-04-05T06:13:56;101077.00;;;5.30
13570;BMP180;6856;51.460;7.158;2023-04-05T06:16:30;101077.00;;;5.40
13570;BMP180;6856;51.460;7.158;2023-04-05T06:19:04;101066.00;;;5.40
13570;BMP180;6856;51.460;7.158;2023-04-05T06:21:40;101067.00;;;5.40
13570;BMP180;6856;51.460;7.158;2023-04-05T06:24:16;101068.00;;;5.50
13570;BMP180;6856;51.460;7.158;2023-04-05T06:26:50;101048.00;;;5.50
13570;BMP180;6856;51.460;7.158;2023-04-05T06:29:25;101074.00;;;5.60
13570;BMP180;6856;51.460;7.158;2023-04-05T06:31:59;101075.00;;;5.70
13570;BMP180;6856;51.460;7.158;2023-04-05T06:34:33;101072.00;;;5.80
13570;BMP180;6856;51.460;7.158;2023-04-05T06:37:06;101071.00;;;5.80
13570;BMP180;6856;51.460;7.158;2023-04-05T06:39:41;101068.00;;;5.90
13570;BMP180;6856;51.460;7.158;2023-04-05T06:42:15;101067.00;;;6.00
13570;BMP180;6856;51.460;7.158;2023-04-05T06:44:49;101065.00;;;6.10
13570;BMP180;6856;51.460;7.158;2023-04-05T06:47:22;101074.00;;;6.10
13570;BMP180;6856;51.460;7.158;2023-04-05T06:49:56;101060.00;;;6.20
13570;BMP180;6856;51.460;7.158;2023-04-05T06:52:31;101072.00;;;6.30
13570;BMP180;6856;51.460;7.158;2023-04-05T06:55:07;101074.00;;;6.40
13570;BMP180;6856;51.460;7.158;2023-04-05T06:57:41;101070.00;;;6.60
13570;BMP180;6856;51.460;7.158;2023-04-05T07:00:15;101064.00;;;6.70
13570;BMP180;6856;51.460;7.158;2023-04-05T07:02:50;101079.00;;;6.80
13570;BMP180;6856;51.460;7.158;2023-04-05T07:05:23;101084.00;;;6.90
13570;BMP180;6856;51.460;7.158;2023-04-05T07:07:59;101076.00;;;7.00
13570;BMP180;6856;51.460;7.158;2023-04-05T07:10:38;101076.00;;;7.10
13570;BMP180;6856;51.460;7.158;2023-04-05T07:13:13;101067.00;;;7.20
13570;BMP180;6856;51.460;7.158;2023-04-05T07:15:48;101053.00;;;7.40
13570;BMP180;6856;51.460;7.158;2023-04-05T07:18:24;101070.00;;;7.40
13570;BMP180;6856;51.460;7.158;2023-04-05T07:20:59;101077.00;;;7.60
13570;BMP180;6856;51.460;7.158;2023-04-05T07:23:33;101076.00;;;7.70
13570;BMP180;6856;51.460;7.158;2023-04-05T07:26:09;101076.00;;;7.80
13570;BMP180;6856;51.460;7.158;2023-04-05T07:28:43;101076.00;;;7.90
13570;BMP180;6856;51.460;7.158;2023-04-05T07:31:17;101069.00;;;7.90
13570;BMP180;6856;51.460;7.158;2023-04-05T07:33:51;101075.00;;;8.00
13570;BMP180;6856;51.460;7.158;2023-04-05T07:36:25;101071.00;;;8.10
13570;BMP180;6856;51.460;7.158;2023-04-05T07:39:00;101075.00;;;8.20
13570;BMP180;6856;51.460;7.158;2023-04-05T07:41:36;101066.00;;;8.30
13570;BMP180;6856;51.460;7.158;2023-04-05T07:44:09;101078.00;;;8.40
13570;BMP180;6856;51.460;7.158;2023-04-05T07:46:43;101084.00;;;8.50
13570;BMP180;6856;51.460;7.158;2023-04-05T07:49:24;101076.00;;;8.70
13570;BMP180;6856;51.460;7.158;2023-04-05T07:51:59;101075.00;;;8.80
13570;BMP180;6856;51.460;7.158;2023-04-05T07:54:32;101078.00;;;8.90
13570;BMP180;6856;51.460;7.158;2023-04-05T07:57:08;101072.00;;;9.00
13570;BMP180;6856;51.460;7.158;2023-04-05T07:59:42;101064.00;;;9.00
13570;BMP180;6856;51.460;7.158;2023-04-05T08:02:16;101083.00;;;9.20
13570;BMP180;6856;51.460;7.158;2023-04-05T08:04:50;101081.00;;;9.30
13570;BMP180;6856;51.460;7.158;2023-04-05T08:07:24;101076.00;;;9.40
13570;BMP180;6856;51.460;7.158;2023-04-05T08:09:58;101085.00;;;9.50
13570;BMP180;6856;51.460;7.158;2023-04-05T08:12:34;101075.00;;;9.60
13570;BMP180;6856;51.460;7.158;2023-04-05T08:15:10;101077.00;;;9.70
13570;BMP180;6856;51.460;7.158;2023-04-05T08:17:44;101074.00;;;9.80
13570;BMP180;6856;51.460;7.158;2023-04-05T08:20:18;101074.00;;;9.90
13570;BMP180;6856;51.460;7.158;2023-04-05T08:22:52;101074.00;;;10.00
13570;BMP180;6856;51.460;7.158;2023-04-05T08:25:25;101073.00;;;10.00
13570;BMP180;6856;51.460;7.158;2023-04-05T08:28:01;101079.00;;;10.10
13570;BMP180;6856;51.460;7.158;2023-04-05T08:30:38;101084.00;;;10.30
13570;BMP180;6856;51.460;7.158;2023-04-05T08:33:13;101064.00;;;10.40
13570;BMP180;6856;51.460;7.158;2023-04-05T08:35:46;101073.00;;;10.40
13570;BMP180;6856;51.460;7.158;2023-04-05T08:38:20;101072.00;;;10.50
13570;BMP180;6856;51.460;7.158;2023-04-05T08:40:54;101051.00;;;10.50
13570;BMP180;6856;51.460;7.158;2023-04-05T08:43:46;101060.00;;;10.70
13570;BMP180;6856;51.460;7.158;2023-04-05T08:46:22;101071.00;;;10.80
13570;BMP180;6856;51.460;7.158;2023-04-05T08:48:56;101078.00;;;10.90
13570;BMP180;6856;51.460;7.158;2023-04-05T08:51:30;101071.00;;;11.00
13570;BMP180;6856;51.460;7.158;2023-04-05T08:54:04;101043.00;;;11.00
13570;BMP180;6856;51.460;7.158;2023-04-05T08:56:40;101066.00;;;11.10
13570;BMP180;6856;51.460;7.158;2023-04-05T08:59:17;101062.00;;;11.20
13570;BMP180;6856;51.460;7.158;2023-04-05T09:01:52;101066.00;;;11.30
13570;BMP180;6856;51.460;7.158;2023-04-05T09:04:31;101064.00;;;11.40
13570;BMP180;6856;51.460;7.158;2023-04-05T09:07:11;101058.00;;;11.50
13570;BMP180;6856;51.460;7.158;2023-04-05T09:09:51;101055.00;;;11.60
13570;BMP180;6856;51.460;7.158;2023-04-05T09:12:28;101058.00;;;11.70
13570;BMP180;6856;51.460;7.158;2023-04-05T09:15:07;101051.00;;;11.80
13570;BMP180;6856;51.460;7.158;2023-04-05T09:17:43;101062.00;;;11.90
13570;BMP180;6856;51.460;7.158;2023-04-05T09:20:17;101053.00;;;12.00
13570;BMP180;6856;51.460;7.158;2023-04-05T09:22:51;101068.00;;;12.10
13570;BMP180;6856;51.460;7.158;2023-04-05T09:25:36;101062.00;;;12.10
13570;BMP180;6856;51.460;7.158;2023-04-05T09:28:10;101056.00;;;12.20
13570;BMP180;6856;51.460;7.158;2023-04-05T09:30:46;101051.00;;;12.20
13570;BMP180;6856;51.460;7.158;2023-04-05T09:33:23;101052.00;;;12.20
13570;BMP180;6856;51.460;7.158;2023-04-05T09:35:57;101055.00;;;12.30
13570;BMP180;6856;51.460;7.158;2023-04-05T09:38:44;101054.00;;;12.30
13570;BMP180;6856;51.460;7.158;2023-04-05T09:41:18;101049.00;;;12.30
13570;BMP180;6856;51.460;7.158;2023-04-05T09:43:52;101061.00;;;12.30
13570;BMP180;6856;51.460;7.158;2023-04-05T09:46:32;101066.00;;;12.40
13570;BMP180;6856;51.460;7.158;2023-04-05T09:49:11;101054.00;;;12.40
13570;BMP180;6856;51.460;7.158;2023-04-05T09:51:45;101055.00;;;12.60
13570;BMP180;6856;51.460;7.158;2023-04-05T09:54:19;101056.00;;;12.70
13570;BMP180;6856;51.460;7.158;2023-04-05T09:56:54;101039.00;;;12.80
13570;BMP180;6856;51.460;7.158;2023-04-05T09:59:28;101053.00;;;12.80
13570;BMP180;6856;51.460;7.158;2023-04-05T10:02:05;101052.00;;;12.90
13570;BMP180;6856;51.460;7.158;2023-04-05T10:04:40;101069.00;;;13.00
13570;BMP180;6856;51.460;7.158;2023-04-05T10:07:16;101046.00;;;13.10
13570;BMP180;6856;51.460;7.158;2023-04-05T10:09:50;101050.00;;;13.10
13570;BMP180;6856;51.460;7.158;2023-04-05T10:12:26;101052.00;;;13.20
13570;BMP180;6856;51.460;7.158;2023-04-05T10:14:59;101048.00;;;13.20
13570;BMP180;6856;51.460;7.158;2023-04-05T10:17:45;101045.00;;;13.30
13570;BMP180;6856;51.460;7.158;2023-04-05T10:20:22;101045.00;;;13.30
13570;BMP180;6856;51.460;7.158;2023-04-05T10:23:00;101044.00;;;13.40
13570;BMP180;6856;51.460;7.158;2023-04-05T10:25:48;101028.00;;;13.50
13570;BMP180;6856;51.460;7.158;2023-04-05T10:28:29;101017.00;;;13.50
13570;BMP180;6856;51.460;7.158;2023-04-05T10:31:11;101038.00;;;13.60
13570;BMP180;6856;51.460;7.158;2023-04-05T10:34:19;101035.00;;;13.70
13570;BMP180;6856;51.460;7.158;2023-04-05T10:36:58;101019.00;;;13.70
13570;BMP180;6856;51.460;7.158;2023-04-05T10:39:38;101035.00;;;13.80
13570;BMP180;6856;51.460;7.158;2023-04-05T10:42:20;101037.00;;;13.90
13570;BMP180;6856;51.460;7.158;2023-04-05T10:45:01;101024.00;;;13.90
13570;BMP180;6856;51.460;7.158;2023-04-05T10:47:46;101031.00;;;14.00
13570;BMP180;6856;51.460;7.158;2023-04-05T10:50:23;101027.00;;;14.00
13570;BMP180;6856;51.460;7.158;2023-04-05T10:52:59;101021.00;;;14.10
13570;BMP180;6856;51.460;7.158;2023-04-05T10:55:34;101021.00;;;14.10
13570;BMP180;6856;51.460;7.158;2023-04-05T10:58:09;101016.00;;;14.20
13570;BMP180;6856;51.460;7.158;2023-04-05T11:00:46;101013.00;;;14.30
13570;BMP180;6856;51.460;7.158;2023-04-05T11:03:47;101007.00;;;14.40
13570;BMP180;6856;51.460;7.158;2023-04-05T11:06:29;101011.00;;;14.50
13570;BMP180;6856;51.460;7.158;2023-04-05T11:09:11;101010.00;;;14.70
13570;BMP180;6856;51.460;7.158;2023-04-05T11:11:49;101013.00;;;14.80
13570;BMP180;6856;51.460;7.158;2023-04-05T11:14:25;101009.00;;;14.90
13570;BMP180;6856;51.460;7.158;2023-04-05T11:17:24;101006.00;;;15.10
13570;BMP180;6856;51.460;7.158;2023-04-05T11:20:03;101007.00;;;15.20
13570;BMP180;6856;51.460;7.158;2023-04-05T11:22:39;100999.00;;;15.30
13570;BMP180;6856;51.460;7.158;2023-04-05T11:25:23;101003.00;;;15.30
13570;BMP180;6856;51.460;7.158;2023-04-05T11:28:00;100999.00;;;15.40
13570;BMP180;6856;51.460;7.158;2023-04-05T11:30:47;101007.00;;;15.50
13570;BMP180;6856;51.460;7.158;2023-04-05T11:33:37;101004.00;;;15.50
13570;BMP180;6856;51.460;7.158;2023-04-05T11:36:11;100995.00;;;15.60
13570;BMP180;6856;51.460;7.158;2023-04-05T11:39:23;100994.00;;;15.60
13570;BMP180;6856;51.460;7.158;2023-04-05T11:42:00;101002.00;;;15.60
13570;BMP180;6856;51.460;7.158;2023-04-05T11:44:43;100992.00;;;15.60
13570;BMP180;6856;51.460;7.158;2023-04-05T11:47:19;100995.00;;;15.70
13570;BMP180;6856;51.460;7.158;2023-04-05T11:49:53;100993.00;;;15.70
13570;BMP180;6856;51.460;7.158;2023-04-05T11:52:26;100992.00;;;15.80
13570;BMP180;6856;51.460;7.158;2023-04-05T11:55:01;100985.00;;;15.90
13570;BMP180;6856;51.460;7.158;2023-04-05T11:57:36;100981.00;;;16.00
13570;BMP180;6856;51.460;7.158;2023-04-05T12:00:15;100980.00;;;16.10
13570;BMP180;6856;51.460;7.158;2023-04-05T12:02:49;100976.00;;;16.20
13570;BMP180;6856;51.460;7.158;2023-04-05T12:05:23;100977.00;;;16.30
13570;BMP180;6856;51.460;7.158;2023-04-05T12:07:58;100951.00;;;16.40
13570;BMP180;6856;51.460;7.158;2023-04-05T12:10:33;100972.00;;;16.50
13570;BMP180;6856;51.460;7.158;2023-04-05T12:13:07;100966.00;;;16.50
13570;BMP180;6856;51.460;7.158;2023-04-05T12:15:41;100962.00;;;16.60
13570;BMP180;6856;51.460;7.158;2023-04-05T12:18:17;100959.00;;;16.70
13570;BMP180;6856;51.460;7.158;2023-04-05T12:20:50;100947.00;;;16.70
13570;BMP180;6856;51.460;7.158;2023-04-05T12:23:25;100958.00;;;16.70
13570;BMP180;6856;51.460;7.158;2023-04-05T12:26:01;100944.00;;;16.70
13570;BMP180;6856;51.460;7.158;2023-04-05T12:28:52;100949.00;;;16.70
13570;BMP180;6856;51.460;7.158;2023-04-05T12:31:39;100951.00;;;16.70
13570;BMP180;6856;51.460;7.158;2023-04-05T12:34:14;100954.00;;;16.80
13570;BMP180;6856;51.460;7.158;2023-04-05T12:36:55;100942.00;;;16.90
13570;BMP180;6856;51.460;7.158;2023-04-05T12:39:37;100946.00;;;17.00
13570;BMP180;6856;51.460;7.158;2023-04-05T12:42:17;100939.00;;;17.10
13570;BMP180;6856;51.460;7.158;2023-04-05T12:45:03;100952.00;;;17.20
13570;BMP180;6856;51.460;7.158;2023-04-05T12:47:49;100947.00;;;17.40
13570;BMP180;6856;51.460;7.158;2023-04-05T12:50:27;100937.00;;;17.40
13570;BMP180;6856;51.460;7.158;2023-04-05T12:53:05;100937.00;;;17.50
13570;BMP180;6856;51.460;7.158;2023-04-05T12:55:47;100929.00;;;17.50
13570;BMP180;6856;51.460;7.158;2023-04-05T12:58:33;100936.00;;;17.50
13570;BMP180;6856;51.460;7.158;2023-04-05T13:01:07;100935.00;;;17.60
13570;BMP180;6856;51.460;7.158;2023-04-05T13:03:43;100930.00;;;17.60
13570;BMP180;6856;51.460;7.158;2023-04-05T13:06:20;100925.00;;;17.70
13570;BMP180;6856;51.460;7.158;2023-04-05T13:08:54;100921.00;;;17.70
13570;BMP180;6856;51.460;7.158;2023-04-05T13:11:28;100922.00;;;17.70
13570;BMP180;6856;51.460;7.158;2023-04-05T13:14:03;100923.00;;;17.80
13570;BMP180;6856;51.460;7.158;2023-04-05T13:16:38;100916.00;;;17.80
13570;BMP180;6856;51.460;7.158;2023-04-05T13:19:12;100913.00;;;17.90
13570;BMP180;6856;51.460;7.158;2023-04-05T13:21:45;100915.00;;;17.90
13570;BMP180;6856;51.460;7.158;2023-04-05T13:24:19;100909.00;;;17.90
13570;BMP180;6856;51.460;7.158;2023-04-05T13:26:53;100902.00;;;17.80
13570;BMP180;6856;51.460;7.158;2023-04-05T13:29:28;100905.00;;;17.80
13570;BMP180;6856;51.460;7.158;2023-04-05T13:32:02;100900.00;;;17.80
13570;BMP180;6856;51.460;7.158;2023-04-05T13:34:36;100896.00;;;17.70
13570;BMP180;6856;51.460;7.158;2023-04-05T13:37:09;100893.00;;;17.70
13570;BMP180;6856;51.460;7.158;2023-04-05T13:39:43;100890.00;;;17.80
13570;BMP180;6856;51.460;7.158;2023-04-05T13:42:17;100889.00;;;17.70
13570;BMP180;6856;51.460;7.158;2023-04-05T13:44:56;100891.00;;;17.70
13570;BMP180;6856;51.460;7.158;2023-04-05T13:47:30;100886.00;;;17.70
13570;BMP180;6856;51.460;7.158;2023-04-05T13:50:05;100870.00;;;17.70
13570;BMP180;6856;51.460;7.158;2023-04-05T13:52:39;100878.00;;;17.70
13570;BMP180;6856;51.460;7.158;2023-04-05T13:55:14;100873.00;;;17.70
13570;BMP180;6856;51.460;7.158;2023-04-05T13:57:48;100867.00;;;17.70
13570;BMP180;6856;51.460;7.158;2023-04-05T14:00:23;100870.00;;;17.80
13570;BMP180;6856;51.460;7.158;2023-04-05T14:02:57;100865.00;;;17.80
13570;BMP180;6856;51.460;7.158;2023-04-05T14:05:31;100863.00;;;17.90
13570;BMP180;6856;51.460;7.158;2023-04-05T14:08:05;100862.00;;;17.90
13570;BMP180;6856;51.460;7.158;2023-04-05T14:10:39;100865.00;;;18.00
13570;BMP180;6856;51.460;7.158;2023-04-05T14:13:13;100863.00;;;18.00
13570;BMP180;6856;51.460;7.158;2023-04-05T14:15:50;100862.00;;;18.10
13570;BMP180;6856;51.460;7.158;2023-04-05T14:18:25;100852.00;;;18.20
13570;BMP180;6856;51.460;7.158;2023-04-05T14:20:59;100853.00;;;18.10
13570;BMP180;6856;51.460;7.158;2023-04-05T14:23:33;100847.00;;;18.20
13570;BMP180;6856;51.460;7.158;2023-04-05T14:26:07;100845.00;;;18.20
13570;BMP180;6856;51.460;7.158;2023-04-05T14:28:40;100830.00;;;18.30
13570;BMP180;6856;51.460;7.158;2023-04-05T14:31:16;100848.00;;;18.30
13570;BMP180;6856;51.460;7.158;2023-04-05T14:33:50;100848.00;;;18.40
13570;BMP180;6856;51.460;7.158;2023-04-05T14:36:24;100839.00;;;18.40
13570;BMP180;6856;51.460;7.158;2023-04-05T14:38:58;100830.00;;;18.50
13570;BMP180;6856;51.460;7.158;2023-04-05T14:41:32;100826.00;;;18.60
13570;BMP180;6856;51.460;7.158;2023-04-05T14:44:06;100830.00;;;18.60
13570;BMP180;6856;51.460;7.158;2023-04-05T14:46:42;100822.00;;;18.70
13570;BMP180;6856;51.460;7.158;2023-04-05T14:49:15;100832.00;;;18.70
13570;BMP180;6856;51.460;7.158;2023-04-05T14:51:49;100828.00;;;18.80
13570;BMP180;6856;51.460;7.158;2023-04-05T14:54:23;100827.00;;;18.90
13570;BMP180;6856;51.460;7.158;2023-04-05T14:56:57;100822.00;;;18.90
13570;BMP180;6856;51.460;7.158;2023-04-05T14:59:31;100828.00;;;18.90
13570;BMP180;6856;51.460;7.158;2023-04-05T15:02:07;100824.00;;;18.90
13570;BMP180;6856;51.460;7.158;2023-04-05T15:04:42;100818.00;;;18.90
13570;BMP180;6856;51.460;7.158;2023-04-05T15:07:16;100818.00;;;19.00
13570;BMP180;6856;51.460;7.158;2023-04-05T15:09:50;100817.00;;;19.00
13570;BMP180;6856;51.460;7.158;2023-04-05T15:12:24;100815.00;;;19.00